Terminal Aerodrome Forecast
Issued by NWS Wilmington, OH

Current Version | Previous Version | Text Only | Print | Product List | Glossary Off
Versions: 1 2 3 4 5 6 7 8 9 10 11 12 13 14 15 16 17 18 19 20 21 22

224
FTUS41 KILN 200535
TAFILN
TAF
KILN 200535Z 2006/2106 20003KT 4SM BR BKN250
     FM200800 28004KT 2SM BR SCT025 BKN250
     FM201300 25003KT P6SM SCT100
     FM201800 27005KT P6SM VCTS BKN040CB
     FM210100 02006KT P6SM SCT080=

USA.gov is the U.S. government's official web portal to all federal, state and local government web resources and services.